Lula, MS (38644)

2:51 AM CDT on April 30, 2017 (GMT -0500)
Dundee | | Change Station
Active Advisory: Wind Advisory

Elev 0 ft 34.51 °N, 90.42 °W | Updated 13 seconds ago

Overcast
Overcast
75.0 °F
Feels Like 73 °F
N
1.3
Wind Variable Wind from SSW
Gusts 2.5 mph

Today
High -- | Low -- °F
--% Chance of Precip.
Yesterday
High -- | Low -- °F
Precip. -- in
Pressure 29.74 in
Visibility 10.0 miles
Clouds Few 5500 ft
Mostly Cloudy 7000 ft
Heat Index 73 °F
Dew Point 74 °F
Humidity 98%
Rainfall 0.00 in
Snow Depth Not available.
6:12 AM 7:45 PM
Waxing Crescent, 20% visible
METAR KCKM 300735Z AUTO 14010G18KT 10SM FEW055 BKN070 25/23 A2974 RMK A01
Pressure 29.74 in
Visibility 10.0 miles
Clouds Few 5500 ft
Mostly Cloudy 7000 ft
Heat Index 73 °F
Dew Point 74 °F
Humidity 98%
Rainfall 0.00 in
Snow Depth Not available.
6:12 AM 7:45 PM
Waxing Crescent, 20% visible
METAR KCKM 300735Z AUTO 14010G18KT 10SM FEW055 BKN070 25/23 A2974 RMK A01

Get Your Daily Forecast Email!

Thanks for signing up!

Be on the lookout for a verification email in your inbox.

You'll start receiving severe weather alerts in your inbox..

×

10-Day Weather Forecast

Almanac

Astronomy

Apr. 30, 2017 Rise Set
Actual Time
Civil Twilight
Nautical Twilight
Astronomical Twilight
Moon
Length of Visible Light
Length of Day
Tomorrow will be .
, % of the Moon is Illuminated

Today's Extremes

State Highs State Lows

Community

WunderPhotos

WunderBlog® & News

Nearby

Air Quality

  Air Quality AQ Index Pollutant
Not available.

Snow Depth

Station Depth Elevation

Earthquake Activity

City Distance Mag. Time & Date
Minimum magnitude displayed is 2.5.

Coastal Water Temperatures

Place Temperature

Stations

Nearby Weather Stations

Station Location Temp. Windchill Dew Point Humidity Wind Precip. Elev Updated Type
                   

Watches & Warnings

Wind Advisory
Issued: 2:17 AM CDT Apr. 30, 2017 – National Weather Service

... Wind Advisory in effect until 7 PM CDT this evening...

The National Weather Service in Memphis has issued a Wind
Advisory, which is in effect until 7 PM CDT this evening.

* Winds... south winds sustained of 20 to 30 mph... with gusts to
40 mph

* timing... through late afternoon today.

* Impacts... loose outdoor items will be vulnerable in the wind.
Driving may become hazardous... especially for high profile
vehicles on west to east roadways.

Precautionary/preparedness actions...

A Wind Advisory means that sustained winds of 25 to 39 mph are
expected... or gusts will range between 40 and 57 mph. Winds this
strong can make driving difficult... especially for high profile
vehicles. Use extra caution.